createdAt,value
2018-01-04T00:01:13.130Z,5.42
2018-01-04T00:02:19.404Z,5.45
2018-01-04T00:03:24.401Z,5.47
2018-01-04T00:04:45.815Z,5.49
2018-01-04T00:05:51.179Z,5.44
2018-01-04T00:06:56.177Z,5.34
2018-01-04T00:08:03.762Z,5.36
2018-01-04T00:09:08.833Z,5.42
2018-01-04T00:10:14.558Z,5.44
2018-01-04T00:11:19.464Z,5.48
2018-01-04T00:12:26.902Z,5.45
2018-01-04T00:13:32.040Z,5.51
2018-01-04T00:14:37.634Z,5.53
2018-01-04T00:15:42.518Z,5.49
2018-01-04T00:16:47.424Z,5.45
2018-01-04T00:17:52.514Z,5.52
2018-01-04T00:18:57.831Z,5.56
2018-01-04T00:20:02.853Z,5.50
2018-01-04T00:21:07.831Z,5.43
2018-01-04T00:22:13.810Z,5.35
2018-01-04T00:23:18.869Z,5.42
2018-01-04T00:24:23.903Z,5.47
2018-01-04T00:25:29.204Z,5.42
2018-01-04T00:26:34.146Z,5.40
2018-01-04T00:27:39.021Z,5.49
2018-01-04T00:28:44.032Z,5.49
2018-01-04T00:29:48.893Z,5.46
2018-01-04T00:30:53.780Z,5.43
2018-01-04T00:31:59.079Z,5.46
2018-01-04T00:33:03.963Z,5.43
2018-01-04T00:34:08.794Z,5.45
2018-01-04T00:35:13.637Z,5.54
2018-01-04T00:36:18.675Z,5.52
2018-01-04T00:37:23.623Z,5.56
2018-01-04T00:38:28.886Z,5.58
2018-01-04T00:39:33.774Z,5.65
2018-01-04T00:40:38.725Z,5.54
2018-01-04T00:41:43.697Z,5.54
2018-01-04T00:42:49.140Z,5.57
2018-01-04T00:43:54.174Z,5.52
2018-01-04T00:44:59.330Z,5.58
2018-01-04T00:46:04.196Z,5.50
2018-01-04T00:47:09.146Z,5.50
2018-01-04T00:48:14.069Z,5.56
2018-01-04T00:49:19.132Z,5.58
2018-01-04T00:50:24.042Z,5.60
2018-01-04T00:51:29.943Z,5.60
2018-01-04T00:52:34.849Z,5.60
2018-01-04T00:53:39.812Z,5.74
2018-01-04T00:54:44.869Z,5.67
2018-01-04T00:55:49.823Z,5.72
2018-01-04T00:56:54.827Z,5.72
2018-01-04T00:58:00.143Z,5.68
2018-01-04T00:59:05.122Z,5.64
2018-01-04T01:00:10.173Z,5.61
2018-01-04T01:01:15.180Z,5.69
2018-01-04T01:02:20.228Z,5.61
2018-01-04T01:03:25.814Z,5.62
2018-01-04T01:04:31.070Z,5.63
2018-01-04T01:05:36.093Z,5.60
2018-01-04T01:06:41.050Z,5.67
2018-01-04T01:07:46.018Z,5.64
2018-01-04T01:08:51.037Z,5.67
2018-01-04T01:09:56.095Z,5.62
2018-01-04T01:11:01.424Z,5.62
2018-01-04T01:12:06.696Z,5.63
2018-01-04T01:13:11.732Z,5.68
2018-01-04T01:14:16.723Z,5.67
2018-01-04T01:15:21.582Z,5.67
2018-01-04T01:16:26.383Z,5.71
2018-01-04T01:17:31.862Z,5.67
2018-01-04T01:18:36.842Z,5.66
2018-01-04T01:19:41.848Z,5.66
2018-01-04T01:20:46.727Z,5.69
2018-01-04T01:21:51.622Z,5.72
2018-01-04T01:22:56.502Z,5.75
2018-01-04T01:24:01.755Z,5.77
2018-01-04T01:25:06.874Z,5.73
2018-01-04T01:26:11.960Z,5.68
2018-01-04T01:27:16.930Z,5.74
2018-01-04T01:28:21.943Z,5.71
2018-01-04T01:29:26.922Z,5.69
2018-01-04T01:30:32.214Z,5.66
2018-01-04T01:31:37.184Z,5.66
2018-01-04T01:32:42.053Z,5.69
2018-01-04T01:33:47.081Z,5.75
2018-01-04T01:34:52.080Z,5.67
2018-01-04T01:35:57.737Z,5.72
2018-01-04T01:37:03.026Z,5.77
2018-01-04T01:38:08.076Z,5.66
2018-01-04T01:39:13.044Z,5.64
2018-01-04T01:40:18.010Z,5.69
2018-01-04T01:41:22.986Z,5.62
2018-01-04T01:42:27.941Z,5.59
2018-01-04T01:43:33.184Z,5.56
2018-01-04T01:44:38.206Z,5.57
2018-01-04T01:45:43.211Z,5.56
2018-01-04T01:46:48.215Z,5.64
2018-01-04T01:47:53.164Z,5.63
2018-01-04T01:49:02.319Z,5.55
2018-01-04T01:50:07.286Z,5.56
2018-01-04T01:51:12.248Z,5.52
2018-01-04T01:52:17.284Z,5.58
2018-01-04T01:53:22.272Z,5.52
2018-01-04T01:54:27.269Z,5.63
2018-01-04T01:55:32.629Z,5.58
2018-01-04T01:56:37.583Z,5.58
2018-01-04T01:57:42.556Z,5.55
2018-01-04T01:58:47.494Z,5.51
2018-01-04T01:59:52.451Z,5.54
2018-01-04T02:00:57.410Z,5.53
2018-01-04T02:02:02.702Z,5.53
2018-01-04T02:03:07.684Z,5.51
2018-01-04T02:04:12.643Z,5.46
2018-01-04T02:05:17.631Z,5.33
2018-01-04T02:06:22.637Z,5.40
2018-01-04T02:07:27.629Z,5.46
2018-01-04T02:08:32.878Z,5.39
2018-01-04T02:09:37.874Z,5.38
2018-01-04T02:10:42.885Z,5.36
2018-01-04T02:11:47.907Z,5.29
2018-01-04T02:12:52.869Z,5.38
2018-01-04T02:13:57.893Z,5.36
2018-01-04T02:15:03.193Z,5.37
2018-01-04T02:16:08.427Z,5.33
2018-01-04T02:17:13.403Z,5.29
2018-01-04T02:18:22.532Z,5.24
2018-01-04T02:21:35.895Z,5.24
2018-01-04T02:23:00.036Z,5.25
2018-01-04T02:24:09.174Z,5.24
2018-01-04T02:25:19.209Z,5.25
2018-01-04T02:26:28.292Z,5.27
2018-01-04T02:29:39.354Z,5.33
2018-01-04T02:32:50.334Z,5.36
2018-01-04T02:34:30.691Z,5.35
2018-01-04T02:35:39.889Z,5.40
2018-01-04T02:38:50.939Z,5.37
2018-01-04T02:41:01.556Z,5.36
2018-01-04T02:42:11.613Z,5.47
2018-01-04T02:43:35.760Z,5.46
2018-01-04T02:44:42.073Z,5.41
2018-01-04T02:45:51.161Z,5.32
2018-01-04T02:46:56.010Z,5.42
2018-01-04T02:48:00.893Z,5.43
2018-01-04T02:49:05.727Z,5.44
2018-01-04T02:50:10.607Z,5.38
2018-01-04T02:51:15.482Z,5.46
2018-01-04T02:52:20.612Z,5.48
2018-01-04T02:53:25.485Z,5.48
2018-01-04T02:54:30.430Z,5.48
2018-01-04T02:55:35.348Z,5.47
2018-01-04T02:56:40.293Z,5.48
2018-01-04T02:57:45.254Z,5.49
2018-01-04T02:58:50.470Z,5.43
2018-01-04T02:59:55.409Z,5.43
2018-01-04T03:01:00.362Z,5.46
2018-01-04T03:02:05.316Z,5.39
2018-01-04T03:03:10.306Z,5.43
2018-01-04T03:04:15.303Z,5.53
2018-01-04T03:05:20.606Z,5.49
2018-01-04T03:06:25.534Z,5.52
2018-01-04T03:07:30.433Z,5.51
2018-01-04T03:08:35.283Z,5.46
2018-01-04T03:09:40.174Z,5.43
2018-01-04T03:10:45.007Z,5.47
2018-01-04T03:11:50.142Z,5.47
2018-01-04T03:12:55.050Z,5.44
2018-01-04T03:13:59.898Z,5.41
2018-01-04T03:15:04.816Z,5.44
2018-01-04T03:16:09.744Z,5.41
2018-01-04T03:17:14.615Z,5.33
2018-01-04T03:18:19.869Z,5.32
2018-01-04T03:19:24.801Z,5.37
2018-01-04T03:20:29.753Z,5.37
2018-01-04T03:21:38.673Z,5.36
2018-01-04T03:22:47.573Z,5.37
2018-01-04T03:23:52.789Z,5.40
2018-01-04T03:25:01.709Z,5.36
2018-01-04T03:28:12.462Z,5.34
2018-01-04T03:29:31.849Z,5.38
2018-01-04T03:30:40.801Z,5.36
2018-01-04T03:33:51.726Z,5.27
2018-01-04T03:37:04.441Z,5.27
2018-01-04T03:40:17.237Z,5.15
2018-01-04T03:41:26.451Z,5.13
2018-01-04T03:44:38.207Z,5.14
2018-01-04T03:47:49.253Z,5.15
2018-01-04T03:48:58.146Z,5.08
2018-01-04T03:50:07.030Z,5.07
2018-01-04T03:51:16.815Z,5.08
2018-01-04T03:52:36.634Z,5.02
2018-01-04T03:53:45.770Z,5.09
2018-01-04T03:54:54.617Z,5.06
2018-01-04T03:58:06.571Z,5.03
2018-01-04T03:59:15.627Z,5.00
2018-01-04T04:00:24.668Z,5.00
2018-01-04T04:05:48.341Z,5.04
2018-01-04T04:06:57.284Z,5.01
2018-01-04T04:08:06.269Z,4.96
2018-01-04T04:09:11.284Z,4.88
2018-01-04T04:10:16.189Z,4.92
2018-01-04T04:11:21.171Z,4.88
2018-01-04T04:12:26.406Z,4.89
2018-01-04T04:13:31.350Z,4.85
2018-01-04T04:14:36.291Z,4.87
2018-01-04T04:15:41.221Z,4.95
2018-01-04T04:16:46.240Z,4.95
2018-01-04T04:17:51.142Z,4.93
2018-01-04T04:18:56.370Z,4.89
2018-01-04T04:20:01.516Z,4.92
2018-01-04T04:21:06.449Z,4.89
2018-01-04T04:22:11.318Z,4.91
2018-01-04T04:23:16.279Z,4.96
2018-01-04T04:24:21.293Z,5.00
2018-01-04T04:25:26.500Z,5.02
2018-01-04T04:26:31.519Z,4.91
2018-01-04T04:27:36.361Z,4.98
2018-01-04T04:28:41.166Z,5.08
2018-01-04T04:29:46.064Z,5.02
2018-01-04T04:30:50.860Z,5.00
2018-01-04T04:31:55.972Z,5.07
2018-01-04T04:33:00.776Z,5.09
2018-01-04T04:34:05.574Z,5.08
2018-01-04T04:35:10.475Z,5.14
2018-01-04T04:36:15.175Z,5.14
2018-01-04T04:37:20.261Z,5.07
2018-01-04T04:38:25.471Z,5.13
2018-01-04T04:39:30.408Z,5.01
2018-01-04T04:40:35.329Z,5.06
2018-01-04T04:41:40.279Z,5.07
2018-01-04T04:42:45.274Z,5.06
2018-01-04T04:43:50.261Z,5.06
2018-01-04T04:44:55.508Z,5.05
2018-01-04T04:46:00.442Z,5.06
2018-01-04T04:47:05.391Z,5.05
2018-01-04T04:48:10.309Z,5.04
2018-01-04T04:49:15.250Z,5.06
2018-01-04T04:50:20.200Z,5.05
2018-01-04T04:51:25.413Z,5.01
2018-01-04T04:52:30.351Z,5.04
2018-01-04T04:53:35.330Z,5.06
2018-01-04T04:54:40.355Z,5.05
2018-01-04T04:55:45.287Z,5.06
2018-01-04T04:56:50.236Z,5.08
2018-01-04T04:57:55.334Z,5.10
2018-01-04T04:59:00.117Z,5.11
2018-01-04T05:00:04.906Z,5.05
2018-01-04T05:01:09.697Z,5.02
2018-01-04T05:02:14.466Z,5.02
2018-01-04T05:03:19.222Z,4.99
2018-01-04T05:04:24.367Z,5.01
2018-01-04T05:05:29.209Z,5.00
2018-01-04T05:06:34.013Z,5.07
2018-01-04T05:07:39.619Z,5.04
2018-01-04T05:08:44.609Z,5.03
2018-01-04T05:09:49.609Z,4.90
2018-01-04T05:10:54.614Z,4.93
2018-01-04T05:11:59.538Z,4.96
2018-01-04T05:13:04.504Z,4.92
2018-01-04T05:14:09.450Z,4.90
2018-01-04T05:15:14.402Z,4.91
2018-01-04T05:16:19.369Z,4.89
2018-01-04T05:17:24.701Z,4.89
2018-01-04T05:18:29.706Z,4.90
2018-01-04T05:19:34.576Z,4.97
2018-01-04T05:20:39.560Z,4.98
2018-01-04T05:21:44.576Z,4.93
2018-01-04T05:22:49.557Z,4.92
2018-01-04T05:23:54.854Z,4.92
2018-01-04T05:24:59.829Z,4.93
2018-01-04T05:26:04.788Z,4.93
2018-01-04T05:27:10.385Z,5.00
2018-01-04T05:28:15.399Z,5.03
2018-01-04T05:29:20.373Z,5.03
2018-01-04T05:30:25.696Z,5.02
2018-01-04T05:31:30.976Z,4.95
2018-01-04T05:32:35.962Z,4.91
2018-01-04T05:33:40.805Z,4.89
2018-01-04T05:34:46.201Z,5.00
2018-01-04T05:35:51.113Z,4.98
2018-01-04T05:36:56.257Z,4.97
2018-01-04T05:38:01.108Z,5.01
2018-01-04T05:39:05.994Z,5.00
2018-01-04T05:40:10.931Z,4.98
2018-01-04T05:41:15.776Z,5.06
2018-01-04T05:42:21.710Z,5.03
2018-01-04T05:43:27.217Z,5.04
2018-01-04T05:44:32.036Z,5.06
2018-01-04T05:45:36.954Z,5.00
2018-01-04T05:46:41.800Z,5.01
2018-01-04T05:47:46.717Z,4.98
2018-01-04T05:48:51.616Z,4.95
2018-01-04T05:49:56.766Z,4.98
2018-01-04T05:51:01.743Z,4.94
2018-01-04T05:52:06.615Z,4.97
2018-01-04T05:53:11.383Z,4.98
2018-01-04T05:54:16.199Z,4.95
2018-01-04T05:55:21.024Z,4.96
2018-01-04T05:56:26.340Z,5.01
2018-01-04T05:57:31.269Z,5.04
2018-01-04T05:58:36.204Z,5.02
2018-01-04T05:59:41.264Z,4.96
2018-01-04T06:00:46.183Z,5.12
2018-01-04T06:01:51.121Z,5.04
2018-01-04T06:02:56.602Z,5.01
2018-01-04T06:04:01.632Z,5.03
2018-01-04T06:05:06.614Z,5.12
2018-01-04T06:06:11.482Z,5.08
2018-01-04T06:07:16.439Z,5.09
2018-01-04T06:08:21.355Z,5.08
2018-01-04T06:09:27.039Z,5.05
2018-01-04T06:10:32.047Z,5.08
2018-01-04T06:11:37.042Z,5.12
2018-01-04T06:12:42.004Z,5.12
2018-01-04T06:13:46.992Z,5.08
2018-01-04T06:14:52.007Z,5.06
2018-01-04T06:15:57.298Z,5.08
2018-01-04T06:17:02.280Z,5.09
2018-01-04T06:18:07.284Z,5.07
2018-01-04T06:19:12.308Z,5.01
2018-01-04T06:20:17.382Z,4.98
2018-01-04T06:21:22.346Z,4.99
2018-01-04T06:22:27.658Z,5.02
2018-01-04T06:23:32.602Z,5.07
2018-01-04T06:24:37.556Z,5.05
2018-01-04T06:25:42.495Z,5.13
2018-01-04T06:26:47.308Z,5.09
2018-01-04T06:27:52.159Z,5.04
2018-01-04T06:28:57.288Z,5.06
2018-01-04T06:30:02.100Z,4.99
2018-01-04T06:31:07.114Z,4.94
2018-01-04T06:32:12.174Z,5.02
2018-01-04T06:33:17.143Z,5.01
2018-01-04T06:34:22.100Z,5.04
2018-01-04T06:35:27.668Z,4.96
2018-01-04T06:36:32.905Z,4.91
2018-01-04T06:37:37.824Z,4.88
2018-01-04T06:38:42.848Z,4.95
2018-01-04T06:39:47.844Z,4.92
2018-01-04T06:40:52.841Z,4.86
2018-01-04T06:41:58.135Z,4.81
2018-01-04T06:43:03.028Z,4.76
2018-01-04T06:44:07.874Z,4.73
2018-01-04T06:45:12.798Z,4.71
2018-01-04T06:46:17.639Z,4.68
2018-01-04T06:47:22.480Z,4.64
2018-01-04T06:48:27.596Z,4.62
2018-01-04T06:49:33.380Z,4.58
2018-01-04T06:50:38.408Z,4.61
2018-01-04T06:51:43.427Z,4.65
2018-01-04T06:52:48.403Z,4.68
2018-01-04T06:53:53.320Z,4.62
2018-01-04T06:54:58.672Z,4.62
2018-01-04T06:56:03.607Z,4.63
2018-01-04T06:57:08.511Z,4.65
2018-01-04T06:58:13.414Z,4.70
2018-01-04T06:59:18.339Z,4.71
2018-01-04T07:00:23.226Z,4.65
2018-01-04T07:01:28.539Z,4.60
2018-01-04T07:02:33.619Z,4.65
2018-01-04T07:03:38.645Z,4.63
2018-01-04T07:04:43.668Z,4.60
2018-01-04T07:05:48.687Z,4.58
2018-01-04T07:06:53.647Z,4.58
2018-01-04T07:07:59.304Z,4.60
2018-01-04T07:09:04.513Z,4.62
2018-01-04T07:10:09.659Z,4.64
2018-01-04T07:11:14.654Z,4.66
2018-01-04T07:12:19.628Z,4.66
2018-01-04T07:13:24.666Z,4.64
2018-01-04T07:14:30.098Z,4.62
2018-01-04T07:15:35.186Z,4.63
2018-01-04T07:16:40.215Z,4.58
2018-01-04T07:17:45.255Z,4.57
2018-01-04T07:18:50.250Z,4.56
2018-01-04T07:19:56.153Z,4.62
2018-01-04T07:21:01.548Z,4.63
2018-01-04T07:22:06.563Z,4.61
2018-01-04T07:23:11.926Z,4.65
2018-01-04T07:24:16.883Z,4.64
2018-01-04T07:25:21.782Z,4.72
2018-01-04T07:26:26.825Z,4.71
2018-01-04T07:27:32.077Z,4.70
2018-01-04T07:28:37.160Z,4.71
2018-01-04T07:29:42.142Z,4.71
2018-01-04T07:30:47.084Z,4.77
2018-01-04T07:31:51.994Z,4.74
2018-01-04T07:32:56.774Z,4.71
2018-01-04T07:34:02.030Z,4.76
2018-01-04T07:35:06.866Z,4.71
2018-01-04T07:36:11.650Z,4.70
2018-01-04T07:37:16.504Z,4.68
2018-01-04T07:38:21.428Z,4.73
2018-01-04T07:39:26.122Z,4.72
2018-01-04T07:40:31.349Z,4.77
2018-01-04T07:41:36.304Z,4.77
2018-01-04T07:42:41.457Z,4.79
2018-01-04T07:43:46.358Z,4.73
2018-01-04T07:44:51.393Z,4.71
2018-01-04T07:45:56.390Z,4.72
2018-01-04T07:47:01.801Z,4.73
2018-01-04T07:48:06.828Z,4.75
2018-01-04T07:49:11.857Z,4.74
2018-01-04T07:50:16.706Z,4.76
2018-01-04T07:51:21.574Z,4.76
2018-01-04T07:52:26.493Z,4.78
2018-01-04T07:53:31.762Z,4.79
2018-01-04T07:54:36.679Z,4.75
2018-01-04T07:55:41.574Z,4.74
2018-01-04T07:56:46.470Z,4.79
2018-01-04T07:57:51.338Z,4.80
2018-01-04T07:58:56.297Z,4.79
2018-01-04T08:00:02.131Z,4.82
2018-01-04T08:01:07.118Z,4.82
2018-01-04T08:02:12.171Z,4.85
2018-01-04T08:03:17.177Z,4.81
2018-01-04T08:04:22.280Z,4.82
2018-01-04T08:05:27.341Z,4.81
2018-01-04T08:06:32.726Z,4.82
2018-01-04T08:07:37.721Z,4.80
2018-01-04T08:08:42.640Z,4.81
2018-01-04T08:09:47.700Z,4.85
2018-01-04T08:10:52.593Z,4.81
2018-01-04T08:11:57.497Z,4.82
2018-01-04T08:13:02.820Z,4.84
2018-01-04T08:14:07.764Z,4.88
2018-01-04T08:15:12.648Z,4.86
2018-01-04T08:16:17.663Z,4.86
2018-01-04T08:17:22.877Z,4.87
2018-01-04T08:18:28.055Z,4.86
2018-01-04T08:19:33.360Z,4.85
2018-01-04T08:20:42.290Z,4.88
2018-01-04T08:21:48.070Z,4.91
2018-01-04T08:22:52.955Z,4.90
2018-01-04T08:23:57.894Z,4.84
2018-01-04T08:25:03.139Z,4.84
2018-01-04T08:26:08.595Z,4.86
2018-01-04T08:27:13.567Z,4.88
2018-01-04T08:28:18.473Z,4.87
2018-01-04T08:29:23.501Z,4.85
2018-01-04T08:30:28.294Z,4.84
2018-01-04T08:31:36.851Z,4.87
2018-01-04T08:32:42.136Z,4.87
2018-01-04T08:33:47.089Z,4.84
2018-01-04T08:34:52.186Z,4.89
2018-01-04T08:35:57.179Z,4.90
2018-01-04T08:37:02.210Z,4.89
2018-01-04T08:38:07.198Z,4.89
2018-01-04T08:39:12.551Z,4.92
2018-01-04T08:40:17.512Z,4.91
2018-01-04T08:41:22.553Z,4.91
2018-01-04T08:42:27.945Z,4.87
2018-01-04T08:43:32.825Z,4.89
2018-01-04T08:44:38.167Z,4.94
2018-01-04T08:45:43.047Z,4.94
2018-01-04T08:46:47.963Z,4.90
2018-01-04T08:47:52.910Z,4.91
2018-01-04T08:48:57.817Z,4.91
2018-01-04T08:50:03.539Z,4.92
2018-01-04T08:51:08.753Z,4.90
2018-01-04T08:52:13.690Z,4.91
2018-01-04T08:53:18.485Z,4.90
2018-01-04T08:54:23.384Z,4.91
2018-01-04T08:55:28.304Z,4.93
2018-01-04T08:56:33.188Z,4.97
2018-01-04T08:57:38.521Z,4.98
2018-01-04T08:58:44.373Z,4.99
2018-01-04T08:59:49.228Z,4.98
2018-01-04T09:00:54.122Z,5.02
2018-01-04T09:01:59.115Z,5.07
2018-01-04T09:03:04.168Z,5.08
2018-01-04T09:04:09.410Z,5.05
2018-01-04T09:05:14.317Z,5.00
2018-01-04T09:06:19.847Z,4.94
2018-01-04T09:07:24.774Z,4.94
2018-01-04T09:08:29.689Z,4.95
2018-01-04T09:09:34.576Z,4.91
2018-01-04T09:10:40.246Z,4.92
2018-01-04T09:11:45.092Z,4.93
2018-01-04T09:12:49.991Z,4.94
2018-01-04T09:13:54.835Z,4.96
2018-01-04T09:14:59.693Z,4.92
2018-01-04T09:16:04.565Z,4.93
2018-01-04T09:17:09.773Z,4.92
2018-01-04T09:18:14.674Z,4.89
2018-01-04T09:19:19.585Z,4.91
2018-01-04T09:20:24.335Z,4.94
2018-01-04T09:21:29.103Z,4.97
2018-01-04T09:22:33.810Z,4.97
2018-01-04T09:23:38.800Z,5.00
2018-01-04T09:24:43.527Z,5.03
2018-01-04T09:25:48.228Z,5.00
2018-01-04T09:26:53.106Z,5.03
2018-01-04T09:27:58.025Z,5.07
2018-01-04T09:29:02.919Z,5.06
2018-01-04T09:30:08.361Z,5.02
2018-01-04T09:31:13.212Z,5.06
2018-01-04T09:32:18.121Z,5.04
2018-01-04T09:33:23.093Z,5.08
2018-01-04T09:34:28.958Z,5.09
2018-01-04T09:35:33.892Z,5.06
2018-01-04T09:36:39.141Z,5.08
2018-01-04T09:37:44.054Z,5.04
2018-01-04T09:38:49.067Z,5.02
2018-01-04T09:39:53.930Z,4.99
2018-01-04T09:40:58.962Z,4.95
2018-01-04T09:42:03.965Z,4.92
2018-01-04T09:43:09.216Z,4.89
2018-01-04T09:44:14.153Z,4.88
2018-01-04T09:45:19.096Z,4.88
2018-01-04T09:46:24.075Z,4.88
2018-01-04T09:47:29.005Z,4.88
2018-01-04T09:48:34.552Z,4.84
2018-01-04T09:49:39.721Z,4.87
2018-01-04T09:50:45.169Z,4.87
2018-01-04T09:51:50.178Z,4.84
2018-01-04T09:52:55.168Z,4.82
2018-01-04T09:54:00.219Z,4.81
2018-01-04T09:55:05.172Z,4.84
2018-01-04T09:56:10.354Z,4.86
2018-01-04T09:57:15.358Z,4.93
2018-01-04T09:58:20.546Z,4.91
2018-01-04T09:59:25.665Z,4.92
2018-01-04T10:00:30.926Z,4.90
2018-01-04T10:01:36.010Z,4.90
2018-01-04T10:02:40.995Z,4.93
2018-01-04T10:03:46.008Z,4.93
2018-01-04T10:04:51.016Z,4.92
2018-01-04T10:05:56.054Z,4.97
2018-01-04T10:07:01.236Z,5.01
2018-01-04T10:08:08.576Z,5.03
2018-01-04T10:09:13.606Z,5.01
2018-01-04T10:10:18.531Z,5.03
2018-01-04T10:11:23.463Z,5.06
2018-01-04T10:12:28.437Z,5.04
2018-01-04T10:13:33.606Z,5.07
2018-01-04T10:14:38.523Z,5.06
2018-01-04T10:15:43.441Z,5.12
2018-01-04T10:16:48.406Z,5.13
2018-01-04T10:17:53.300Z,5.13
2018-01-04T10:18:58.160Z,5.18
2018-01-04T10:20:03.893Z,5.14
2018-01-04T10:21:08.832Z,5.14
2018-01-04T10:22:13.657Z,5.12
2018-01-04T10:23:18.455Z,5.14
2018-01-04T10:24:23.317Z,5.17
2018-01-04T10:25:28.071Z,5.19
2018-01-04T10:26:32.863Z,5.20
2018-01-04T10:27:37.687Z,5.23
2018-01-04T10:28:42.566Z,5.21
2018-01-04T10:29:47.477Z,5.22
2018-01-04T10:30:52.374Z,5.23
2018-01-04T10:31:57.718Z,5.24
2018-01-04T10:33:02.623Z,5.25
2018-01-04T10:34:07.531Z,5.27
2018-01-04T10:35:12.417Z,5.30
2018-01-04T10:36:17.373Z,5.28
2018-01-04T10:37:22.257Z,5.26
2018-01-04T10:38:27.463Z,5.26
2018-01-04T10:39:32.350Z,5.30
2018-01-04T10:40:37.316Z,5.31
2018-01-04T10:41:42.294Z,5.36
2018-01-04T10:42:47.304Z,5.34
2018-01-04T10:43:55.609Z,5.36
2018-01-04T10:45:01.040Z,5.35
2018-01-04T10:46:11.124Z,5.36
2018-01-04T10:47:16.138Z,5.36
2018-01-04T10:48:21.114Z,5.36
2018-01-04T10:49:26.085Z,5.36
2018-01-04T10:50:31.021Z,5.41
2018-01-04T10:51:36.446Z,5.39
2018-01-04T10:52:41.431Z,5.41
2018-01-04T10:53:46.445Z,5.43
2018-01-04T10:54:51.506Z,5.43
2018-01-04T10:55:56.335Z,5.40
2018-01-04T10:57:01.406Z,5.43
2018-01-04T10:58:06.736Z,5.42
2018-01-04T10:59:11.616Z,5.43
2018-01-04T11:00:16.636Z,5.44
2018-01-04T11:01:21.595Z,5.44
2018-01-04T11:02:26.548Z,5.43
2018-01-04T11:03:31.455Z,5.44
2018-01-04T11:04:36.807Z,5.47
2018-01-04T11:05:41.675Z,5.43
2018-01-04T11:06:46.742Z,5.46
2018-01-04T11:07:51.661Z,5.46
2018-01-04T11:08:56.534Z,5.44
2018-01-04T11:10:01.371Z,5.49
2018-01-04T11:11:06.577Z,5.48
2018-01-04T11:12:11.688Z,5.44
2018-01-04T11:13:17.016Z,5.46
2018-01-04T11:14:21.915Z,5.46
2018-01-04T11:15:26.783Z,5.47
2018-01-04T11:16:32.411Z,5.47
2018-01-04T11:17:37.644Z,5.47
2018-01-04T11:18:42.565Z,5.51
2018-01-04T11:19:47.501Z,5.51
2018-01-04T11:20:52.400Z,5.53
2018-01-04T11:21:57.356Z,5.52
2018-01-04T11:23:02.352Z,5.51
2018-01-04T11:24:07.679Z,5.54
2018-01-04T11:25:12.667Z,5.56
2018-01-04T11:26:17.646Z,5.57
2018-01-04T11:27:22.606Z,5.60
2018-01-04T11:28:27.616Z,5.61
2018-01-04T11:29:32.584Z,5.66
2018-01-04T11:30:37.656Z,5.71
2018-01-04T11:31:42.674Z,5.69
2018-01-04T11:32:47.670Z,5.68
2018-01-04T11:33:52.665Z,5.72
2018-01-04T11:34:57.748Z,5.74
2018-01-04T11:36:02.760Z,5.76
2018-01-04T11:37:07.953Z,5.80
2018-01-04T11:38:12.811Z,5.83
2018-01-04T11:39:17.804Z,5.80
2018-01-04T11:40:22.838Z,5.79
2018-01-04T11:41:27.855Z,5.82
2018-01-04T11:42:32.844Z,5.78
2018-01-04T11:43:38.158Z,5.78
2018-01-04T11:44:43.145Z,5.80
2018-01-04T11:45:48.207Z,5.76
2018-01-04T11:46:53.226Z,5.70
2018-01-04T11:47:58.325Z,5.73
2018-01-04T11:49:03.407Z,5.69
2018-01-04T11:50:08.762Z,5.69
2018-01-04T11:51:14.241Z,5.75
2018-01-04T11:52:19.295Z,5.75
2018-01-04T11:53:24.384Z,5.75
2018-01-04T11:54:29.356Z,5.73
2018-01-04T11:55:34.696Z,5.77
2018-01-04T11:56:40.146Z,5.77
2018-01-04T11:57:45.119Z,5.72
2018-01-04T11:58:50.266Z,5.79
2018-01-04T11:59:55.276Z,5.82
2018-01-04T12:01:00.580Z,5.84
2018-01-04T12:02:05.415Z,5.82
2018-01-04T12:03:10.530Z,5.86
2018-01-04T12:04:15.255Z,5.86
2018-01-04T12:05:20.116Z,5.89
2018-01-04T12:06:25.054Z,5.86
2018-01-04T12:07:30.121Z,5.86
2018-01-04T12:08:35.096Z,5.90
2018-01-04T12:09:40.379Z,5.89
2018-01-04T12:10:45.411Z,5.82
2018-01-04T12:11:50.522Z,5.81
2018-01-04T12:12:55.485Z,5.85
2018-01-04T12:14:00.415Z,5.88
2018-01-04T12:15:05.381Z,5.88
2018-01-04T12:16:10.551Z,5.88
2018-01-04T12:17:15.552Z,5.89
2018-01-04T12:18:20.477Z,5.91
2018-01-04T12:19:25.476Z,5.91
2018-01-04T12:20:30.514Z,5.97
2018-01-04T12:21:35.509Z,5.95
2018-01-04T12:22:40.767Z,5.91
2018-01-04T12:23:45.798Z,5.93
2018-01-04T12:24:51.476Z,5.94
2018-01-04T12:25:56.824Z,5.90
2018-01-04T12:27:03.648Z,5.89
2018-01-04T12:28:08.635Z,5.89
2018-01-04T12:29:14.601Z,5.94
2018-01-04T12:30:19.521Z,5.94
2018-01-04T12:31:24.539Z,5.93
2018-01-04T12:32:29.513Z,5.94
2018-01-04T12:33:34.324Z,5.97
2018-01-04T12:34:39.664Z,5.96
2018-01-04T12:35:45.163Z,5.99
2018-01-04T12:36:51.190Z,5.93
2018-01-04T12:37:57.805Z,5.92
2018-01-04T12:39:04.628Z,5.92
2018-01-04T12:40:10.566Z,5.89
2018-01-04T12:41:16.278Z,5.86
2018-01-04T12:42:22.134Z,5.84
2018-01-04T12:43:27.496Z,5.84
2018-01-04T12:44:33.743Z,5.82
2018-01-04T12:45:40.005Z,5.81
2018-01-04T12:46:45.083Z,5.81
2018-01-04T12:47:50.606Z,5.80
2018-01-04T12:48:56.565Z,5.80
2018-01-04T12:50:03.354Z,5.80
2018-01-04T12:51:08.783Z,5.82
2018-01-04T12:52:13.766Z,5.83
2018-01-04T12:53:19.625Z,5.85
2018-01-04T12:54:25.001Z,5.87
2018-01-04T12:55:31.156Z,5.89
2018-01-04T12:56:36.572Z,5.90
2018-01-04T12:57:43.627Z,5.88
2018-01-04T12:58:48.678Z,5.90
2018-01-04T12:59:53.790Z,5.89
2018-01-04T13:00:58.733Z,5.90
2018-01-04T13:02:04.591Z,5.89
2018-01-04T13:03:10.166Z,5.90
2018-01-04T13:04:15.093Z,5.89
2018-01-04T13:05:20.111Z,5.91
2018-01-04T13:06:25.196Z,5.90
2018-01-04T13:07:30.219Z,5.90
2018-01-04T13:08:35.935Z,5.89
2018-01-04T13:09:40.956Z,5.90
2018-01-04T13:10:45.957Z,5.89
2018-01-04T13:11:51.022Z,5.89
2018-01-04T13:12:56.042Z,5.93
2018-01-04T13:14:01.237Z,5.94
2018-01-04T13:15:06.689Z,5.94
2018-01-04T13:16:11.702Z,5.93
2018-01-04T13:17:17.731Z,5.89
2018-01-04T13:18:22.714Z,5.88
2018-01-04T13:19:27.911Z,5.88
2018-01-04T13:20:33.091Z,5.91
2018-01-04T13:21:38.423Z,5.90
2018-01-04T13:22:43.463Z,5.91
2018-01-04T13:23:48.530Z,5.85
2018-01-04T13:24:53.626Z,5.87
2018-01-04T13:25:58.670Z,5.87
2018-01-04T13:27:03.713Z,5.85
2018-01-04T13:28:09.199Z,5.82
2018-01-04T13:29:14.370Z,5.85
2018-01-04T13:30:19.384Z,5.85
2018-01-04T13:31:24.585Z,5.88
2018-01-04T13:32:29.604Z,5.87
2018-01-04T13:33:34.576Z,5.90
2018-01-04T13:34:39.825Z,5.88
2018-01-04T13:35:44.832Z,5.89
2018-01-04T13:36:49.806Z,5.89
2018-01-04T13:37:54.871Z,5.91
2018-01-04T13:38:59.851Z,5.92
2018-01-04T13:40:04.945Z,5.95
2018-01-04T13:41:10.381Z,5.99
2018-01-04T13:42:15.353Z,5.96
2018-01-04T13:43:20.292Z,5.96
2018-01-04T13:44:25.311Z,6.02
2018-01-04T13:45:30.348Z,5.99
2018-01-04T13:46:36.117Z,5.98
2018-01-04T13:47:42.716Z,6.01
2018-01-04T13:48:47.722Z,6.01
2018-01-04T13:49:52.781Z,6.05
2018-01-04T13:50:57.755Z,6.10
2018-01-04T13:52:02.698Z,6.08
2018-01-04T13:53:07.668Z,6.07
2018-01-04T13:54:12.906Z,6.11
2018-01-04T13:55:17.911Z,6.10
2018-01-04T13:56:23.249Z,6.10
2018-01-04T13:57:28.142Z,6.13
2018-01-04T13:58:33.610Z,6.12
2018-01-04T13:59:38.512Z,6.13
2018-01-04T14:00:43.846Z,6.16
2018-01-04T14:01:48.723Z,6.18
2018-01-04T14:02:53.543Z,6.19
2018-01-04T14:03:58.337Z,6.19
2018-01-04T14:05:03.774Z,6.19
2018-01-04T14:06:09.389Z,6.23
2018-01-04T14:07:14.415Z,6.23
2018-01-04T14:08:19.429Z,6.23
2018-01-04T14:09:24.390Z,6.24
2018-01-04T14:10:29.406Z,6.27
2018-01-04T14:11:34.487Z,6.28
2018-01-04T14:12:39.431Z,6.30
2018-01-04T14:13:44.701Z,6.29
2018-01-04T14:14:49.673Z,6.29
2018-01-04T14:15:54.686Z,6.31
2018-01-04T14:16:59.630Z,6.32
2018-01-04T14:18:04.779Z,6.33
2018-01-04T14:19:10.173Z,6.31
2018-01-04T14:20:15.444Z,6.31
2018-01-04T14:21:20.884Z,6.32
2018-01-04T14:22:25.864Z,6.33
2018-01-04T14:23:30.891Z,6.35
2018-01-04T14:24:35.901Z,6.34
2018-01-04T14:25:40.903Z,6.37
2018-01-04T14:26:46.366Z,6.38
2018-01-04T14:27:51.738Z,6.38
2018-01-04T14:28:56.696Z,6.41
2018-01-04T14:30:01.559Z,6.43
2018-01-04T14:31:06.425Z,6.45
2018-01-04T14:32:11.300Z,6.44
2018-01-04T14:33:16.023Z,6.44
2018-01-04T14:34:20.740Z,6.44
2018-01-04T14:35:25.470Z,6.46
2018-01-04T14:36:30.250Z,6.49
2018-01-04T14:37:35.016Z,6.50
2018-01-04T14:38:40.184Z,6.47
2018-01-04T14:39:45.099Z,6.49
2018-01-04T14:40:49.979Z,6.50
2018-01-04T14:41:54.937Z,6.50
2018-01-04T14:42:59.802Z,6.46
2018-01-04T14:44:04.707Z,6.46
2018-01-04T14:45:10.393Z,6.47
2018-01-04T14:46:15.270Z,6.50
2018-01-04T14:47:20.273Z,6.49
2018-01-04T14:48:26.106Z,6.51
2018-01-04T14:49:31.314Z,6.49
2018-01-04T14:50:36.449Z,6.50
2018-01-04T14:51:41.874Z,6.51
2018-01-04T14:52:48.723Z,6.50
2018-01-04T14:53:54.370Z,6.47
2018-01-04T14:54:59.424Z,6.46
2018-01-04T14:56:04.990Z,6.48
2018-01-04T14:57:10.056Z,6.48
2018-01-04T14:58:15.993Z,6.48
2018-01-04T14:59:20.887Z,6.49